sensor_id;sensor_type;location;lat;lon;timestamp;P1;durP1;ratioP1;P2;durP2;ratioP2
74945;SDS011;63509;45.250;38.102;2023-04-01T00:00:57;18.50;;;4.50;;
74945;SDS011;63509;45.250;38.102;2023-04-01T00:03:25;6.50;;;2.53;;
74945;SDS011;63509;45.250;38.102;2023-04-01T00:05:52;4.95;;;2.15;;
74945;SDS011;63509;45.250;38.102;2023-04-01T00:08:22;10.05;;;2.60;;
74945;SDS011;63509;45.250;38.102;2023-04-01T00:10:48;6.53;;;2.60;;
74945;SDS011;63509;45.250;38.102;2023-04-01T00:13:14;8.15;;;2.80;;
74945;SDS011;63509;45.250;38.102;2023-04-01T00:15:41;5.18;;;2.15;;
74945;SDS011;63509;45.250;38.102;2023-04-01T00:18:08;4.38;;;1.92;;
74945;SDS011;63509;45.250;38.102;2023-04-01T00:20:34;6.20;;;2.50;;
74945;SDS011;63509;45.250;38.102;2023-04-01T00:23:00;6.45;;;2.33;;
74945;SDS011;63509;45.250;38.102;2023-04-01T00:25:27;3.85;;;2.13;;
74945;SDS011;63509;45.250;38.102;2023-04-01T00:27:53;7.72;;;2.45;;
74945;SDS011;63509;45.250;38.102;2023-04-01T00:30:19;3.67;;;1.80;;
74945;SDS011;63509;45.250;38.102;2023-04-01T00:32:45;4.88;;;2.45;;
74945;SDS011;63509;45.250;38.102;2023-04-01T00:35:11;5.53;;;2.45;;
74945;SDS011;63509;45.250;38.102;2023-04-01T00:37:38;7.22;;;2.88;;
74945;SDS011;63509;45.250;38.102;2023-04-01T00:40:07;12.15;;;2.63;;
74945;SDS011;63509;45.250;38.102;2023-04-01T00:42:34;4.47;;;2.05;;
74945;SDS011;63509;45.250;38.102;2023-04-01T00:45:21;2.83;;;1.77;;
74945;SDS011;63509;45.250;38.102;2023-04-01T00:47:54;4.20;;;1.83;;
74945;SDS011;63509;45.250;38.102;2023-04-01T00:50:21;3.83;;;1.95;;
74945;SDS011;63509;45.250;38.102;2023-04-01T00:52:50;7.50;;;1.95;;
74945;SDS011;63509;45.250;38.102;2023-04-01T00:55:16;11.10;;;2.10;;
74945;SDS011;63509;45.250;38.102;2023-04-01T00:57:43;16.08;;;2.28;;
74945;SDS011;63509;45.250;38.102;2023-04-01T01:00:11;7.72;;;2.42;;
74945;SDS011;63509;45.250;38.102;2023-04-01T01:02:44;4.47;;;2.28;;
74945;SDS011;63509;45.250;38.102;2023-04-01T01:05:12;3.60;;;1.85;;
74945;SDS011;63509;45.250;38.102;2023-04-01T01:15:53;6.38;;;2.58;;
74945;SDS011;63509;45.250;38.102;2023-04-01T01:21:23;4.07;;;1.88;;
74945;SDS011;63509;45.250;38.102;2023-04-01T01:24:17;4.13;;;1.63;;
74945;SDS011;63509;45.250;38.102;2023-04-01T01:37:54;6.57;;;2.20;;
74945;SDS011;63509;45.250;38.102;2023-04-01T01:40:25;4.82;;;2.22;;
74945;SDS011;63509;45.250;38.102;2023-04-01T01:42:53;4.72;;;2.08;;
74945;SDS011;63509;45.250;38.102;2023-04-01T01:45:23;9.57;;;2.35;;
74945;SDS011;63509;45.250;38.102;2023-04-01T01:47:52;14.00;;;3.33;;
74945;SDS011;63509;45.250;38.102;2023-04-01T01:50:19;10.40;;;3.50;;
74945;SDS011;63509;45.250;38.102;2023-04-01T01:52:46;9.27;;;2.70;;
74945;SDS011;63509;45.250;38.102;2023-04-01T02:01:02;11.27;;;2.97;;
74945;SDS011;63509;45.250;38.102;2023-04-01T02:03:33;17.75;;;2.85;;
74945;SDS011;63509;45.250;38.102;2023-04-01T02:06:01;7.28;;;2.95;;
74945;SDS011;63509;45.250;38.102;2023-04-01T02:08:37;6.18;;;2.20;;
74945;SDS011;63509;45.250;38.102;2023-04-01T02:11:17;16.88;;;3.25;;
74945;SDS011;63509;45.250;38.102;2023-04-01T02:16:34;12.02;;;2.17;;
74945;SDS011;63509;45.250;38.102;2023-04-01T02:19:05;6.15;;;2.28;;
74945;SDS011;63509;45.250;38.102;2023-04-01T02:21:33;9.38;;;3.30;;
74945;SDS011;63509;45.250;38.102;2023-04-01T02:24:02;12.63;;;2.92;;
74945;SDS011;63509;45.250;38.102;2023-04-01T02:26:32;6.05;;;2.85;;
74945;SDS011;63509;45.250;38.102;2023-04-01T02:28:58;4.95;;;2.38;;
74945;SDS011;63509;45.250;38.102;2023-04-01T02:31:26;7.07;;;2.50;;
74945;SDS011;63509;45.250;38.102;2023-04-01T02:33:53;7.78;;;2.50;;
74945;SDS011;63509;45.250;38.102;2023-04-01T02:36:20;4.97;;;2.55;;
74945;SDS011;63509;45.250;38.102;2023-04-01T02:38:46;5.40;;;2.97;;
74945;SDS011;63509;45.250;38.102;2023-04-01T02:41:15;5.25;;;2.63;;
74945;SDS011;63509;45.250;38.102;2023-04-01T02:43:41;4.68;;;2.40;;
74945;SDS011;63509;45.250;38.102;2023-04-01T02:46:07;4.38;;;2.30;;
74945;SDS011;63509;45.250;38.102;2023-04-01T02:48:33;9.57;;;2.72;;
74945;SDS011;63509;45.250;38.102;2023-04-01T02:50:59;4.97;;;2.42;;
74945;SDS011;63509;45.250;38.102;2023-04-01T02:53:26;8.88;;;3.10;;
74945;SDS011;63509;45.250;38.102;2023-04-01T02:55:52;4.65;;;2.80;;
74945;SDS011;63509;45.250;38.102;2023-04-01T02:58:18;4.68;;;2.42;;
74945;SDS011;63509;45.250;38.102;2023-04-01T03:00:44;17.90;;;3.75;;
74945;SDS011;63509;45.250;38.102;2023-04-01T03:03:10;5.30;;;2.58;;
74945;SDS011;63509;45.250;38.102;2023-04-01T03:05:38;12.10;;;3.25;;
74945;SDS011;63509;45.250;38.102;2023-04-01T03:08:05;23.23;;;3.35;;
74945;SDS011;63509;45.250;38.102;2023-04-01T03:10:31;7.03;;;2.47;;
74945;SDS011;63509;45.250;38.102;2023-04-01T03:12:57;6.65;;;2.20;;
74945;SDS011;63509;45.250;38.102;2023-04-01T03:15:23;7.55;;;2.72;;
74945;SDS011;63509;45.250;38.102;2023-04-01T03:17:49;7.75;;;2.17;;
74945;SDS011;63509;45.250;38.102;2023-04-01T03:20:16;10.68;;;2.60;;
74945;SDS011;63509;45.250;38.102;2023-04-01T03:22:42;7.20;;;2.88;;
74945;SDS011;63509;45.250;38.102;2023-04-01T03:25:08;10.93;;;2.60;;
74945;SDS011;63509;45.250;38.102;2023-04-01T03:27:36;4.40;;;2.13;;
74945;SDS011;63509;45.250;38.102;2023-04-01T03:30:03;8.57;;;1.60;;
74945;SDS011;63509;45.250;38.102;2023-04-01T03:32:36;5.85;;;2.38;;
74945;SDS011;63509;45.250;38.102;2023-04-01T03:35:02;25.40;;;3.78;;
74945;SDS011;63509;45.250;38.102;2023-04-01T03:37:30;8.23;;;2.75;;
74945;SDS011;63509;45.250;38.102;2023-04-01T03:39:56;6.07;;;2.42;;
74945;SDS011;63509;45.250;38.102;2023-04-01T03:42:22;6.55;;;2.40;;
74945;SDS011;63509;45.250;38.102;2023-04-01T03:44:48;14.23;;;3.20;;
74945;SDS011;63509;45.250;38.102;2023-04-01T03:47:15;13.35;;;3.05;;
74945;SDS011;63509;45.250;38.102;2023-04-01T03:49:41;5.18;;;2.58;;
74945;SDS011;63509;45.250;38.102;2023-04-01T03:52:10;9.48;;;3.03;;
74945;SDS011;63509;45.250;38.102;2023-04-01T03:54:37;17.70;;;3.85;;
74945;SDS011;63509;45.250;38.102;2023-04-01T03:57:04;5.80;;;2.10;;
74945;SDS011;63509;45.250;38.102;2023-04-01T03:59:32;6.60;;;2.20;;
74945;SDS011;63509;45.250;38.102;2023-04-01T04:01:58;3.15;;;1.42;;
74945;SDS011;63509;45.250;38.102;2023-04-01T04:04:24;7.65;;;2.08;;
74945;SDS011;63509;45.250;38.102;2023-04-01T04:06:51;4.55;;;2.42;;
74945;SDS011;63509;45.250;38.102;2023-04-01T04:09:19;13.10;;;2.88;;
74945;SDS011;63509;45.250;38.102;2023-04-01T04:11:46;4.25;;;2.15;;
74945;SDS011;63509;45.250;38.102;2023-04-01T04:14:12;5.43;;;2.25;;
74945;SDS011;63509;45.250;38.102;2023-04-01T04:16:38;14.48;;;2.42;;
74945;SDS011;63509;45.250;38.102;2023-04-01T04:19:05;10.25;;;2.50;;
74945;SDS011;63509;45.250;38.102;2023-04-01T04:21:31;9.82;;;2.28;;
74945;SDS011;63509;45.250;38.102;2023-04-01T04:23:59;8.75;;;3.50;;
74945;SDS011;63509;45.250;38.102;2023-04-01T04:26:27;6.38;;;2.42;;
74945;SDS011;63509;45.250;38.102;2023-04-01T04:28:58;4.88;;;2.03;;
74945;SDS011;63509;45.250;38.102;2023-04-01T04:31:25;9.57;;;3.00;;
74945;SDS011;63509;45.250;38.102;2023-04-01T04:33:54;7.07;;;2.38;;
74945;SDS011;63509;45.250;38.102;2023-04-01T04:36:21;10.02;;;2.92;;
74945;SDS011;63509;45.250;38.102;2023-04-01T04:41:16;15.35;;;3.05;;
74945;SDS011;63509;45.250;38.102;2023-04-01T04:43:50;15.60;;;2.53;;
74945;SDS011;63509;45.250;38.102;2023-04-01T04:46:23;17.98;;;3.30;;
74945;SDS011;63509;45.250;38.102;2023-04-01T04:48:55;14.32;;;2.30;;
74945;SDS011;63509;45.250;38.102;2023-04-01T04:51:21;10.52;;;2.42;;
74945;SDS011;63509;45.250;38.102;2023-04-01T04:53:49;5.55;;;2.30;;
74945;SDS011;63509;45.250;38.102;2023-04-01T04:56:20;8.52;;;2.50;;
74945;SDS011;63509;45.250;38.102;2023-04-01T04:58:53;12.35;;;2.45;;
74945;SDS011;63509;45.250;38.102;2023-04-01T05:01:24;5.20;;;2.00;;
74945;SDS011;63509;45.250;38.102;2023-04-01T05:03:51;27.02;;;3.47;;
74945;SDS011;63509;45.250;38.102;2023-04-01T05:06:17;4.88;;;1.50;;
74945;SDS011;63509;45.250;38.102;2023-04-01T05:08:44;7.35;;;1.75;;
74945;SDS011;63509;45.250;38.102;2023-04-01T05:11:14;18.67;;;1.55;;
74945;SDS011;63509;45.250;38.102;2023-04-01T05:13:42;8.98;;;1.83;;
74945;SDS011;63509;45.250;38.102;2023-04-01T05:16:10;3.45;;;1.10;;
74945;SDS011;63509;45.250;38.102;2023-04-01T05:18:38;4.93;;;1.50;;
74945;SDS011;63509;45.250;38.102;2023-04-01T05:21:06;10.00;;;2.30;;
74945;SDS011;63509;45.250;38.102;2023-04-01T05:26:02;8.82;;;2.05;;
74945;SDS011;63509;45.250;38.102;2023-04-01T05:28:33;24.13;;;4.20;;
74945;SDS011;63509;45.250;38.102;2023-04-01T05:30:59;15.85;;;2.47;;
74945;SDS011;63509;45.250;38.102;2023-04-01T05:33:32;6.40;;;1.85;;
74945;SDS011;63509;45.250;38.102;2023-04-01T05:38:35;11.32;;;1.95;;
74945;SDS011;63509;45.250;38.102;2023-04-01T05:41:02;9.48;;;2.45;;
74945;SDS011;63509;45.250;38.102;2023-04-01T05:43:29;10.70;;;2.00;;
74945;SDS011;63509;45.250;38.102;2023-04-01T05:45:59;5.05;;;2.22;;
74945;SDS011;63509;45.250;38.102;2023-04-01T05:48:35;6.50;;;1.80;;
74945;SDS011;63509;45.250;38.102;2023-04-01T05:51:02;10.05;;;1.80;;
74945;SDS011;63509;45.250;38.102;2023-04-01T05:53:29;4.30;;;1.48;;
74945;SDS011;63509;45.250;38.102;2023-04-01T05:55:56;9.13;;;1.67;;
74945;SDS011;63509;45.250;38.102;2023-04-01T05:58:22;7.75;;;1.63;;
74945;SDS011;63509;45.250;38.102;2023-04-01T06:00:48;14.43;;;1.98;;
74945;SDS011;63509;45.250;38.102;2023-04-01T06:03:15;9.90;;;1.95;;
74945;SDS011;63509;45.250;38.102;2023-04-01T06:05:42;3.35;;;0.95;;
74945;SDS011;63509;45.250;38.102;2023-04-01T06:08:10;3.35;;;1.30;;
74945;SDS011;63509;45.250;38.102;2023-04-01T06:26:57;8.43;;;1.95;;
74945;SDS011;63509;45.250;38.102;2023-04-01T06:32:30;8.02;;;1.90;;
74945;SDS011;63509;45.250;38.102;2023-04-01T06:38:29;12.95;;;1.95;;
74945;SDS011;63509;45.250;38.102;2023-04-01T06:41:10;12.25;;;2.00;;
74945;SDS011;63509;45.250;38.102;2023-04-01T06:44:04;7.88;;;2.30;;
74945;SDS011;63509;45.250;38.102;2023-04-01T06:47:25;4.65;;;1.45;;
74945;SDS011;63509;45.250;38.102;2023-04-01T06:53:23;8.70;;;1.35;;
74945;SDS011;63509;45.250;38.102;2023-04-01T06:56:10;9.75;;;1.63;;
74945;SDS011;63509;45.250;38.102;2023-04-01T06:59:02;5.97;;;1.67;;
74945;SDS011;63509;45.250;38.102;2023-04-01T07:01:50;6.93;;;1.33;;
74945;SDS011;63509;45.250;38.102;2023-04-01T07:04:26;19.42;;;1.80;;
74945;SDS011;63509;45.250;38.102;2023-04-01T07:07:04;3.42;;;0.98;;
74945;SDS011;63509;45.250;38.102;2023-04-01T07:09:50;7.70;;;1.27;;
74945;SDS011;63509;45.250;38.102;2023-04-01T07:15:19;6.70;;;1.05;;
74945;SDS011;63509;45.250;38.102;2023-04-01T07:17:52;11.38;;;3.15;;
74945;SDS011;63509;45.250;38.102;2023-04-01T07:20:31;12.98;;;4.03;;
74945;SDS011;63509;45.250;38.102;2023-04-01T07:23:03;8.13;;;2.85;;
74945;SDS011;63509;45.250;38.102;2023-04-01T07:25:47;9.52;;;2.15;;
74945;SDS011;63509;45.250;38.102;2023-04-01T07:28:29;11.20;;;1.30;;
74945;SDS011;63509;45.250;38.102;2023-04-01T07:36:53;7.00;;;1.08;;
74945;SDS011;63509;45.250;38.102;2023-04-01T07:48:00;3.08;;;0.88;;
74945;SDS011;63509;45.250;38.102;2023-04-01T07:50:54;5.38;;;1.00;;
74945;SDS011;63509;45.250;38.102;2023-04-01T08:04:28;10.90;;;1.80;;
74945;SDS011;63509;45.250;38.102;2023-04-01T08:07:07;12.32;;;1.92;;
74945;SDS011;63509;45.250;38.102;2023-04-01T08:19:21;8.77;;;1.23;;
74945;SDS011;63509;45.250;38.102;2023-04-01T08:21:55;8.55;;;1.48;;
74945;SDS011;63509;45.250;38.102;2023-04-01T08:24:34;11.00;;;0.73;;
74945;SDS011;63509;45.250;38.102;2023-04-01T08:27:06;6.53;;;1.25;;
74945;SDS011;63509;45.250;38.102;2023-04-01T08:29:48;2.40;;;0.90;;
74945;SDS011;63509;45.250;38.102;2023-04-01T08:32:22;4.90;;;0.95;;
74945;SDS011;63509;45.250;38.102;2023-04-01T08:51:43;6.72;;;1.20;;
74945;SDS011;63509;45.250;38.102;2023-04-01T08:54:35;6.80;;;1.70;;
74945;SDS011;63509;45.250;38.102;2023-04-01T09:08:28;5.15;;;0.90;;
74945;SDS011;63509;45.250;38.102;2023-04-01T09:11:33;8.40;;;1.10;;
74945;SDS011;63509;45.250;38.102;2023-04-01T09:28:40;11.63;;;1.30;;
74945;SDS011;63509;45.250;38.102;2023-04-01T09:37:20;6.07;;;1.30;;
74945;SDS011;63509;45.250;38.102;2023-04-01T09:45:48;17.35;;;1.92;;
74945;SDS011;63509;45.250;38.102;2023-04-01T09:48:43;5.72;;;1.00;;
74945;SDS011;63509;45.250;38.102;2023-04-01T09:54:11;14.35;;;1.70;;
74945;SDS011;63509;45.250;38.102;2023-04-01T10:05:49;2.88;;;0.73;;
74945;SDS011;63509;45.250;38.102;2023-04-01T10:26:10;12.30;;;1.50;;
74945;SDS011;63509;45.250;38.102;2023-04-01T10:32:06;6.95;;;1.13;;
74945;SDS011;63509;45.250;38.102;2023-04-01T11:13:50;3.88;;;1.15;;
74945;SDS011;63509;45.250;38.102;2023-04-01T11:16:47;7.88;;;1.27;;
74945;SDS011;63509;45.250;38.102;2023-04-01T11:22:36;8.05;;;1.30;;
74945;SDS011;63509;45.250;38.102;2023-04-01T11:31:23;4.72;;;1.13;;
74945;SDS011;63509;45.250;38.102;2023-04-01T11:42:49;7.93;;;1.55;;
74945;SDS011;63509;45.250;38.102;2023-04-01T11:56:52;4.68;;;1.13;;
74945;SDS011;63509;45.250;38.102;2023-04-01T11:59:48;13.68;;;1.02;;
74945;SDS011;63509;45.250;38.102;2023-04-01T12:10:39;6.82;;;1.65;;
74945;SDS011;63509;45.250;38.102;2023-04-01T12:21:38;4.75;;;0.82;;
74945;SDS011;63509;45.250;38.102;2023-04-01T12:24:35;3.47;;;0.95;;
74945;SDS011;63509;45.250;38.102;2023-04-01T12:32:34;5.97;;;0.82;;
74945;SDS011;63509;45.250;38.102;2023-04-01T12:41:13;5.40;;;1.20;;
74945;SDS011;63509;45.250;38.102;2023-04-01T12:49:32;3.72;;;1.10;;
74945;SDS011;63509;45.250;38.102;2023-04-01T12:52:25;10.93;;;2.45;;
74945;SDS011;63509;45.250;38.102;2023-04-01T12:55:15;4.93;;;1.63;;
74945;SDS011;63509;45.250;38.102;2023-04-01T13:06:58;11.80;;;1.80;;
74945;SDS011;63509;45.250;38.102;2023-04-01T13:09:41;3.92;;;1.58;;
74945;SDS011;63509;45.250;38.102;2023-04-01T13:17:50;11.60;;;1.33;;
74945;SDS011;63509;45.250;38.102;2023-04-01T13:28:18;5.40;;;1.67;;
74945;SDS011;63509;45.250;38.102;2023-04-01T13:30:55;5.40;;;1.48;;
74945;SDS011;63509;45.250;38.102;2023-04-01T13:34:37;3.63;;;1.50;;
74945;SDS011;63509;45.250;38.102;2023-04-01T13:42:32;10.18;;;5.80;;
74945;SDS011;63509;45.250;38.102;2023-04-01T13:48:27;16.90;;;8.77;;
74945;SDS011;63509;45.250;38.102;2023-04-01T13:51:00;14.05;;;6.40;;
74945;SDS011;63509;45.250;38.102;2023-04-01T14:01:55;3.25;;;1.15;;
74945;SDS011;63509;45.250;38.102;2023-04-01T14:05:02;8.45;;;1.85;;
74945;SDS011;63509;45.250;38.102;2023-04-01T14:10:37;5.07;;;1.98;;
74945;SDS011;63509;45.250;38.102;2023-04-01T14:18:35;2.92;;;1.30;;
74945;SDS011;63509;45.250;38.102;2023-04-01T14:24:14;3.30;;;0.85;;
74945;SDS011;63509;45.250;38.102;2023-04-01T14:29:56;3.78;;;1.15;;
74945;SDS011;63509;45.250;38.102;2023-04-01T14:49:21;13.88;;;7.20;;
74945;SDS011;63509;45.250;38.102;2023-04-01T14:51:48;14.70;;;4.30;;
74945;SDS011;63509;45.250;38.102;2023-04-01T14:54:36;7.45;;;2.10;;
74945;SDS011;63509;45.250;38.102;2023-04-01T14:57:13;5.78;;;1.00;;
74945;SDS011;63509;45.250;38.102;2023-04-01T14:59:51;5.68;;;1.55;;
74945;SDS011;63509;45.250;38.102;2023-04-01T15:02:40;7.22;;;1.10;;
74945;SDS011;63509;45.250;38.102;2023-04-01T15:08:08;4.50;;;1.10;;
74945;SDS011;63509;45.250;38.102;2023-04-01T15:10:49;7.53;;;1.17;;
74945;SDS011;63509;45.250;38.102;2023-04-01T15:18:33;5.43;;;1.40;;
74945;SDS011;63509;45.250;38.102;2023-04-01T15:21:36;6.13;;;1.02;;
74945;SDS011;63509;45.250;38.102;2023-04-01T15:40:57;7.38;;;1.33;;
74945;SDS011;63509;45.250;38.102;2023-04-01T15:43:46;14.63;;;2.20;;
74945;SDS011;63509;45.250;38.102;2023-04-01T16:09:52;12.07;;;2.78;;
74945;SDS011;63509;45.250;38.102;2023-04-01T16:23:30;5.32;;;1.90;;
74945;SDS011;63509;45.250;38.102;2023-04-01T16:26:17;4.80;;;1.38;;
74945;SDS011;63509;45.250;38.102;2023-04-01T16:29:01;14.38;;;1.58;;
74945;SDS011;63509;45.250;38.102;2023-04-01T16:34:24;14.70;;;2.90;;
74945;SDS011;63509;45.250;38.102;2023-04-01T16:37:05;9.93;;;1.58;;
74945;SDS011;63509;45.250;38.102;2023-04-01T16:39:43;5.13;;;1.02;;
74945;SDS011;63509;45.250;38.102;2023-04-01T16:47:32;10.73;;;1.77;;
74945;SDS011;63509;45.250;38.102;2023-04-01T16:52:40;14.35;;;2.38;;
74945;SDS011;63509;45.250;38.102;2023-04-01T16:55:14;6.20;;;1.50;;
74945;SDS011;63509;45.250;38.102;2023-04-01T17:00:26;9.10;;;2.60;;
74945;SDS011;63509;45.250;38.102;2023-04-01T17:03:04;9.63;;;2.80;;
74945;SDS011;63509;45.250;38.102;2023-04-01T17:06:00;11.35;;;3.75;;
74945;SDS011;63509;45.250;38.102;2023-04-01T17:08:43;25.02;;;5.95;;
74945;SDS011;63509;45.250;38.102;2023-04-01T17:11:18;22.13;;;5.78;;
74945;SDS011;63509;45.250;38.102;2023-04-01T17:19:32;22.75;;;6.88;;
74945;SDS011;63509;45.250;38.102;2023-04-01T17:27:41;19.92;;;7.30;;
74945;SDS011;63509;45.250;38.102;2023-04-01T17:35:35;12.75;;;4.63;;
74945;SDS011;63509;45.250;38.102;2023-04-01T17:38:17;19.98;;;5.28;;
74945;SDS011;63509;45.250;38.102;2023-04-01T17:41:09;12.60;;;4.38;;
74945;SDS011;63509;45.250;38.102;2023-04-01T17:44:12;25.05;;;5.75;;
74945;SDS011;63509;45.250;38.102;2023-04-01T17:52:33;8.38;;;2.92;;
74945;SDS011;63509;45.250;38.102;2023-04-01T17:55:24;15.45;;;4.80;;
74945;SDS011;63509;45.250;38.102;2023-04-01T18:00:48;24.65;;;3.30;;
74945;SDS011;63509;45.250;38.102;2023-04-01T18:06:20;14.85;;;2.92;;
74945;SDS011;63509;45.250;38.102;2023-04-01T18:09:09;6.55;;;2.47;;
74945;SDS011;63509;45.250;38.102;2023-04-01T18:12:06;16.23;;;2.70;;
74945;SDS011;63509;45.250;38.102;2023-04-01T18:15:27;20.23;;;3.35;;
74945;SDS011;63509;45.250;38.102;2023-04-01T18:21:16;10.68;;;3.13;;
74945;SDS011;63509;45.250;38.102;2023-04-01T18:23:58;13.65;;;3.78;;
74945;SDS011;63509;45.250;38.102;2023-04-01T18:26:44;27.95;;;6.75;;
74945;SDS011;63509;45.250;38.102;2023-04-01T18:29:32;23.20;;;5.00;;
74945;SDS011;63509;45.250;38.102;2023-04-01T18:32:10;13.30;;;3.50;;
74945;SDS011;63509;45.250;38.102;2023-04-01T18:37:25;21.40;;;4.20;;
74945;SDS011;63509;45.250;38.102;2023-04-01T18:45:49;15.00;;;3.88;;
74945;SDS011;63509;45.250;38.102;2023-04-01T18:53:42;27.27;;;6.72;;
74945;SDS011;63509;45.250;38.102;2023-04-01T18:56:15;17.23;;;4.70;;
74945;SDS011;63509;45.250;38.102;2023-04-01T18:59:08;28.27;;;8.20;;
74945;SDS011;63509;45.250;38.102;2023-04-01T19:05:11;27.33;;;7.30;;
74945;SDS011;63509;45.250;38.102;2023-04-01T19:38:26;16.80;;;4.50;;
74945;SDS011;63509;45.250;38.102;2023-04-01T19:49:14;14.80;;;4.65;;
74945;SDS011;63509;45.250;38.102;2023-04-01T19:54:46;10.55;;;2.53;;
74945;SDS011;63509;45.250;38.102;2023-04-01T20:00:23;9.98;;;2.97;;
74945;SDS011;63509;45.250;38.102;2023-04-01T20:11:11;28.23;;;5.00;;
74945;SDS011;63509;45.250;38.102;2023-04-01T20:16:37;5.15;;;2.85;;
74945;SDS011;63509;45.250;38.102;2023-04-01T20:19:24;14.10;;;4.25;;
74945;SDS011;63509;45.250;38.102;2023-04-01T20:24:43;11.73;;;4.18;;
74945;SDS011;63509;45.250;38.102;2023-04-01T20:32:43;11.43;;;5.32;;
74945;SDS011;63509;45.250;38.102;2023-04-01T20:43:52;12.35;;;3.97;;
74945;SDS011;63509;45.250;38.102;2023-04-01T20:54:45;9.05;;;2.15;;
74945;SDS011;63509;45.250;38.102;2023-04-01T21:00:32;10.50;;;2.00;;
74945;SDS011;63509;45.250;38.102;2023-04-01T21:03:11;7.90;;;2.70;;
74945;SDS011;63509;45.250;38.102;2023-04-01T21:14:13;18.27;;;6.07;;
74945;SDS011;63509;45.250;38.102;2023-04-01T21:22:39;35.05;;;10.15;;
74945;SDS011;63509;45.250;38.102;2023-04-01T21:28:12;24.50;;;7.10;;
74945;SDS011;63509;45.250;38.102;2023-04-01T21:56:02;12.88;;;4.90;;
74945;SDS011;63509;45.250;38.102;2023-04-01T22:01:46;12.90;;;4.60;;
74945;SDS011;63509;45.250;38.102;2023-04-01T22:04:31;12.30;;;5.30;;
74945;SDS011;63509;45.250;38.102;2023-04-01T22:07:14;13.85;;;5.10;;
74945;SDS011;63509;45.250;38.102;2023-04-01T22:09:59;22.25;;;5.30;;
74945;SDS011;63509;45.250;38.102;2023-04-01T22:17:57;16.10;;;4.95;;
74945;SDS011;63509;45.250;38.102;2023-04-01T22:23:18;12.10;;;4.80;;
74945;SDS011;63509;45.250;38.102;2023-04-01T22:26:05;13.52;;;4.55;;
74945;SDS011;63509;45.250;38.102;2023-04-01T22:31:48;20.63;;;4.63;;
74945;SDS011;63509;45.250;38.102;2023-04-01T22:34:19;11.48;;;3.50;;
74945;SDS011;63509;45.250;38.102;2023-04-01T22:39:50;8.45;;;3.95;;
74945;SDS011;63509;45.250;38.102;2023-04-01T22:47:55;16.25;;;4.20;;
74945;SDS011;63509;45.250;38.102;2023-04-01T22:50:41;8.63;;;4.18;;
74945;SDS011;63509;45.250;38.102;2023-04-01T22:53:33;8.80;;;4.13;;
74945;SDS011;63509;45.250;38.102;2023-04-01T22:56:05;16.27;;;4.72;;
74945;SDS011;63509;45.250;38.102;2023-04-01T22:58:38;14.73;;;5.97;;
74945;SDS011;63509;45.250;38.102;2023-04-01T23:01:15;15.18;;;5.43;;
74945;SDS011;63509;45.250;38.102;2023-04-01T23:03:46;13.80;;;4.70;;
74945;SDS011;63509;45.250;38.102;2023-04-01T23:11:39;9.55;;;3.60;;
74945;SDS011;63509;45.250;38.102;2023-04-01T23:14:38;6.80;;;3.47;;
74945;SDS011;63509;45.250;38.102;2023-04-01T23:38:22;9.38;;;4.05;;
74945;SDS011;63509;45.250;38.102;2023-04-01T23:40:51;8.95;;;3.53;;
74945;SDS011;63509;45.250;38.102;2023-04-01T23:43:40;12.63;;;4.13;;
74945;SDS011;63509;45.250;38.102;2023-04-01T23:46:06;9.70;;;2.88;;
74945;SDS011;63509;45.250;38.102;2023-04-01T23:48:35;10.57;;;3.20;;
74945;SDS011;63509;45.250;38.102;2023-04-01T23:51:03;11.35;;;3.75;;
74945;SDS011;63509;45.250;38.102;2023-04-01T23:53:41;16.42;;;4.05;;
74945;SDS011;63509;45.250;38.102;2023-04-01T23:56:10;13.18;;;3.67;;
74945;SDS011;63509;45.250;38.102;2023-04-01T23:58:48;14.63;;;3.30;;
